sensor_id;sensor_type;location;lat;lon;timestamp;P1;durP1;ratioP1;P2;durP2;ratioP2
54855;SDS011;40748;53.168;5.800;2023-02-27T00:04:55;0.20;;;0.00;;
54855;SDS011;40748;53.168;5.800;2023-02-27T00:09:55;0.20;;;0.00;;
54855;SDS011;40748;53.168;5.800;2023-02-27T00:12:25;0.20;;;0.00;;
54855;SDS011;40748;53.168;5.800;2023-02-27T00:14:55;0.20;;;0.00;;
54855;SDS011;40748;53.168;5.800;2023-02-27T00:17:25;0.20;;;0.00;;
54855;SDS011;40748;53.168;5.800;2023-02-27T00:19:55;0.20;;;0.00;;
54855;SDS011;40748;53.168;5.800;2023-02-27T00:22:25;0.20;;;0.00;;
54855;SDS011;40748;53.168;5.800;2023-02-27T00:24:55;0.20;;;0.00;;
54855;SDS011;40748;53.168;5.800;2023-02-27T00:27:25;0.20;;;0.00;;
54855;SDS011;40748;53.168;5.800;2023-02-27T00:29:55;0.20;;;0.00;;
54855;SDS011;40748;53.168;5.800;2023-02-27T00:34:55;0.20;;;0.00;;
54855;SDS011;40748;53.168;5.800;2023-02-27T00:37:25;0.20;;;0.00;;
54855;SDS011;40748;53.168;5.800;2023-02-27T00:42:25;0.20;;;0.00;;
54855;SDS011;40748;53.168;5.800;2023-02-27T00:44:55;0.20;;;0.00;;
54855;SDS011;40748;53.168;5.800;2023-02-27T00:47:25;0.20;;;0.00;;
54855;SDS011;40748;53.168;5.800;2023-02-27T00:52:26;0.20;;;0.00;;
54855;SDS011;40748;53.168;5.800;2023-02-27T00:54:55;0.20;;;0.00;;
54855;SDS011;40748;53.168;5.800;2023-02-27T00:57:25;0.20;;;0.00;;
54855;SDS011;40748;53.168;5.800;2023-02-27T00:59:55;0.20;;;0.00;;
54855;SDS011;40748;53.168;5.800;2023-02-27T01:02:25;0.20;;;0.00;;
54855;SDS011;40748;53.168;5.800;2023-02-27T01:04:55;0.20;;;0.00;;
54855;SDS011;40748;53.168;5.800;2023-02-27T01:07:25;0.20;;;0.00;;
54855;SDS011;40748;53.168;5.800;2023-02-27T01:09:55;0.20;;;0.00;;
54855;SDS011;40748;53.168;5.800;2023-02-27T01:12:25;0.20;;;0.00;;
54855;SDS011;40748;53.168;5.800;2023-02-27T01:14:55;0.20;;;0.00;;
54855;SDS011;40748;53.168;5.800;2023-02-27T01:17:25;0.20;;;0.00;;
54855;SDS011;40748;53.168;5.800;2023-02-27T01:19:55;0.20;;;0.00;;
54855;SDS011;40748;53.168;5.800;2023-02-27T01:22:25;0.20;;;0.00;;
54855;SDS011;40748;53.168;5.800;2023-02-27T01:24:55;0.20;;;0.00;;
54855;SDS011;40748;53.168;5.800;2023-02-27T01:27:25;0.20;;;0.00;;
54855;SDS011;40748;53.168;5.800;2023-02-27T01:29:55;0.20;;;0.00;;
54855;SDS011;40748;53.168;5.800;2023-02-27T01:32:25;0.20;;;0.00;;
54855;SDS011;40748;53.168;5.800;2023-02-27T01:34:55;0.20;;;0.00;;
54855;SDS011;40748;53.168;5.800;2023-02-27T01:37:25;0.20;;;0.00;;
54855;SDS011;40748;53.168;5.800;2023-02-27T01:39:55;0.20;;;0.00;;
54855;SDS011;40748;53.168;5.800;2023-02-27T01:42:27;0.20;;;0.00;;
54855;SDS011;40748;53.168;5.800;2023-02-27T01:45:14;0.20;;;0.00;;
54855;SDS011;40748;53.168;5.800;2023-02-27T01:47:25;0.20;;;0.00;;
54855;SDS011;40748;53.168;5.800;2023-02-27T01:49:55;0.20;;;0.00;;
54855;SDS011;40748;53.168;5.800;2023-02-27T01:52:26;0.20;;;0.00;;
54855;SDS011;40748;53.168;5.800;2023-02-27T01:54:56;0.20;;;0.00;;
54855;SDS011;40748;53.168;5.800;2023-02-27T01:57:26;0.20;;;0.00;;
54855;SDS011;40748;53.168;5.800;2023-02-27T01:59:55;0.20;;;0.00;;
54855;SDS011;40748;53.168;5.800;2023-02-27T02:02:30;0.20;;;0.00;;
54855;SDS011;40748;53.168;5.800;2023-02-27T02:04:56;0.20;;;0.00;;
54855;SDS011;40748;53.168;5.800;2023-02-27T02:07:26;0.20;;;0.00;;
54855;SDS011;40748;53.168;5.800;2023-02-27T02:09:58;0.20;;;0.00;;
54855;SDS011;40748;53.168;5.800;2023-02-27T02:14:55;0.20;;;0.00;;
54855;SDS011;40748;53.168;5.800;2023-02-27T02:17:32;0.20;;;0.00;;
54855;SDS011;40748;53.168;5.800;2023-02-27T02:25:12;0.20;;;0.00;;
54855;SDS011;40748;53.168;5.800;2023-02-27T02:30:12;0.20;;;0.00;;
54855;SDS011;40748;53.168;5.800;2023-02-27T02:35:11;0.20;;;0.00;;
54855;SDS011;40748;53.168;5.800;2023-02-27T02:37:42;0.20;;;0.00;;
54855;SDS011;40748;53.168;5.800;2023-02-27T02:40:05;0.20;;;0.00;;
54855;SDS011;40748;53.168;5.800;2023-02-27T02:42:30;0.20;;;0.00;;
54855;SDS011;40748;53.168;5.800;2023-02-27T02:45:07;0.20;;;0.00;;
54855;SDS011;40748;53.168;5.800;2023-02-27T02:47:32;0.20;;;0.00;;
54855;SDS011;40748;53.168;5.800;2023-02-27T02:52:30;0.20;;;0.00;;
54855;SDS011;40748;53.168;5.800;2023-02-27T02:55:01;0.20;;;0.00;;
54855;SDS011;40748;53.168;5.800;2023-02-27T03:02:29;0.20;;;0.00;;
54855;SDS011;40748;53.168;5.800;2023-02-27T03:04:59;0.20;;;0.00;;
54855;SDS011;40748;53.168;5.800;2023-02-27T03:07:29;0.20;;;0.00;;
54855;SDS011;40748;53.168;5.800;2023-02-27T03:09:59;0.20;;;0.00;;
54855;SDS011;40748;53.168;5.800;2023-02-27T03:12:27;0.20;;;0.00;;
54855;SDS011;40748;53.168;5.800;2023-02-27T03:15:01;0.20;;;0.00;;
54855;SDS011;40748;53.168;5.800;2023-02-27T03:17:41;0.20;;;0.00;;
54855;SDS011;40748;53.168;5.800;2023-02-27T03:19:58;0.20;;;0.00;;
54855;SDS011;40748;53.168;5.800;2023-02-27T03:22:29;0.20;;;0.00;;
54855;SDS011;40748;53.168;5.800;2023-02-27T03:24:57;0.20;;;0.00;;
54855;SDS011;40748;53.168;5.800;2023-02-27T03:27:30;0.20;;;0.00;;
54855;SDS011;40748;53.168;5.800;2023-02-27T03:29:57;0.20;;;0.00;;
54855;SDS011;40748;53.168;5.800;2023-02-27T03:32:30;0.20;;;0.00;;
54855;SDS011;40748;53.168;5.800;2023-02-27T03:40:00;0.20;;;0.00;;
54855;SDS011;40748;53.168;5.800;2023-02-27T03:42:31;0.20;;;0.00;;
54855;SDS011;40748;53.168;5.800;2023-02-27T03:45:02;0.20;;;0.00;;
54855;SDS011;40748;53.168;5.800;2023-02-27T03:47:26;0.20;;;0.00;;
54855;SDS011;40748;53.168;5.800;2023-02-27T03:55:01;0.20;;;0.00;;
54855;SDS011;40748;53.168;5.800;2023-02-27T03:57:25;0.20;;;0.00;;
54855;SDS011;40748;53.168;5.800;2023-02-27T03:59:56;0.20;;;0.00;;
54855;SDS011;40748;53.168;5.800;2023-02-27T04:02:26;0.20;;;0.00;;
54855;SDS011;40748;53.168;5.800;2023-02-27T04:04:55;0.20;;;0.00;;
54855;SDS011;40748;53.168;5.800;2023-02-27T04:07:30;0.20;;;0.00;;
54855;SDS011;40748;53.168;5.800;2023-02-27T04:12:35;0.20;;;0.00;;
54855;SDS011;40748;53.168;5.800;2023-02-27T04:15:04;0.20;;;0.00;;
54855;SDS011;40748;53.168;5.800;2023-02-27T04:17:27;0.20;;;0.00;;
54855;SDS011;40748;53.168;5.800;2023-02-27T04:22:32;0.20;;;0.00;;
54855;SDS011;40748;53.168;5.800;2023-02-27T04:25:00;0.20;;;0.00;;
54855;SDS011;40748;53.168;5.800;2023-02-27T04:27:32;0.20;;;0.00;;
54855;SDS011;40748;53.168;5.800;2023-02-27T04:29:58;0.20;;;0.00;;
54855;SDS011;40748;53.168;5.800;2023-02-27T04:32:30;0.20;;;0.00;;
54855;SDS011;40748;53.168;5.800;2023-02-27T04:34:58;0.20;;;0.00;;
54855;SDS011;40748;53.168;5.800;2023-02-27T04:37:28;0.20;;;0.00;;
54855;SDS011;40748;53.168;5.800;2023-02-27T04:39:59;0.20;;;0.00;;
54855;SDS011;40748;53.168;5.800;2023-02-27T04:42:28;0.20;;;0.00;;
54855;SDS011;40748;53.168;5.800;2023-02-27T04:44:59;0.20;;;0.00;;
54855;SDS011;40748;53.168;5.800;2023-02-27T04:47:29;0.20;;;0.00;;
54855;SDS011;40748;53.168;5.800;2023-02-27T04:49:58;0.20;;;0.00;;
54855;SDS011;40748;53.168;5.800;2023-02-27T04:52:28;0.20;;;0.00;;
54855;SDS011;40748;53.168;5.800;2023-02-27T04:54:59;0.20;;;0.00;;
54855;SDS011;40748;53.168;5.800;2023-02-27T04:57:28;0.20;;;0.00;;
54855;SDS011;40748;53.168;5.800;2023-02-27T04:59:56;0.20;;;0.00;;
54855;SDS011;40748;53.168;5.800;2023-02-27T05:02:28;0.20;;;0.00;;
54855;SDS011;40748;53.168;5.800;2023-02-27T05:04:57;0.20;;;0.00;;
54855;SDS011;40748;53.168;5.800;2023-02-27T05:14:59;0.20;;;0.00;;
54855;SDS011;40748;53.168;5.800;2023-02-27T05:17:29;0.20;;;0.00;;
54855;SDS011;40748;53.168;5.800;2023-02-27T05:22:31;0.20;;;0.00;;
54855;SDS011;40748;53.168;5.800;2023-02-27T05:24:59;0.20;;;0.00;;
54855;SDS011;40748;53.168;5.800;2023-02-27T05:27:32;0.20;;;0.00;;
54855;SDS011;40748;53.168;5.800;2023-02-27T05:29:58;0.20;;;0.00;;
54855;SDS011;40748;53.168;5.800;2023-02-27T05:35:00;0.20;;;0.00;;
54855;SDS011;40748;53.168;5.800;2023-02-27T05:37:29;0.20;;;0.00;;
54855;SDS011;40748;53.168;5.800;2023-02-27T05:39:57;0.20;;;0.00;;
54855;SDS011;40748;53.168;5.800;2023-02-27T05:42:28;0.20;;;0.00;;
54855;SDS011;40748;53.168;5.800;2023-02-27T05:44:58;0.20;;;0.00;;
54855;SDS011;40748;53.168;5.800;2023-02-27T05:47:29;0.20;;;0.00;;
54855;SDS011;40748;53.168;5.800;2023-02-27T05:50:00;0.20;;;0.00;;
54855;SDS011;40748;53.168;5.800;2023-02-27T05:52:26;0.20;;;0.00;;
54855;SDS011;40748;53.168;5.800;2023-02-27T05:54:58;0.20;;;0.00;;
54855;SDS011;40748;53.168;5.800;2023-02-27T05:57:29;0.20;;;0.00;;
54855;SDS011;40748;53.168;5.800;2023-02-27T06:00:00;0.20;;;0.00;;
54855;SDS011;40748;53.168;5.800;2023-02-27T06:02:25;0.20;;;0.00;;
54855;SDS011;40748;53.168;5.800;2023-02-27T06:04:55;0.20;;;0.00;;
54855;SDS011;40748;53.168;5.800;2023-02-27T06:07:25;0.20;;;0.00;;
54855;SDS011;40748;53.168;5.800;2023-02-27T06:09:55;0.20;;;0.00;;
54855;SDS011;40748;53.168;5.800;2023-02-27T06:12:25;0.20;;;0.00;;
54855;SDS011;40748;53.168;5.800;2023-02-27T06:14:55;0.20;;;0.00;;
54855;SDS011;40748;53.168;5.800;2023-02-27T06:17:25;0.20;;;0.00;;
54855;SDS011;40748;53.168;5.800;2023-02-27T06:19:55;0.20;;;0.00;;
54855;SDS011;40748;53.168;5.800;2023-02-27T06:22:25;0.20;;;0.00;;
54855;SDS011;40748;53.168;5.800;2023-02-27T06:24:55;0.20;;;0.00;;
54855;SDS011;40748;53.168;5.800;2023-02-27T06:27:25;0.20;;;0.00;;
54855;SDS011;40748;53.168;5.800;2023-02-27T06:29:55;0.20;;;0.00;;
54855;SDS011;40748;53.168;5.800;2023-02-27T06:32:25;0.20;;;0.00;;
54855;SDS011;40748;53.168;5.800;2023-02-27T06:39:55;0.20;;;0.00;;
54855;SDS011;40748;53.168;5.800;2023-02-27T06:52:26;0.20;;;0.00;;
54855;SDS011;40748;53.168;5.800;2023-02-27T06:54:55;0.20;;;0.00;;
54855;SDS011;40748;53.168;5.800;2023-02-27T06:57:25;0.20;;;0.00;;
54855;SDS011;40748;53.168;5.800;2023-02-27T06:59:55;0.20;;;0.00;;
54855;SDS011;40748;53.168;5.800;2023-02-27T07:02:25;0.20;;;0.00;;
54855;SDS011;40748;53.168;5.800;2023-02-27T07:04:55;0.20;;;0.00;;
54855;SDS011;40748;53.168;5.800;2023-02-27T07:07:25;0.20;;;0.00;;
54855;SDS011;40748;53.168;5.800;2023-02-27T07:09:55;0.20;;;0.00;;
54855;SDS011;40748;53.168;5.800;2023-02-27T07:12:25;0.20;;;0.00;;
54855;SDS011;40748;53.168;5.800;2023-02-27T07:14:55;0.20;;;0.00;;
54855;SDS011;40748;53.168;5.800;2023-02-27T07:17:25;0.20;;;0.00;;
54855;SDS011;40748;53.168;5.800;2023-02-27T07:19:55;0.20;;;0.00;;
54855;SDS011;40748;53.168;5.800;2023-02-27T07:22:25;0.20;;;0.00;;
54855;SDS011;40748;53.168;5.800;2023-02-27T07:24:55;0.20;;;0.00;;
54855;SDS011;40748;53.168;5.800;2023-02-27T07:27:25;0.20;;;0.00;;
54855;SDS011;40748;53.168;5.800;2023-02-27T07:29:56;0.20;;;0.00;;
54855;SDS011;40748;53.168;5.800;2023-02-27T07:32:26;0.20;;;0.00;;
54855;SDS011;40748;53.168;5.800;2023-02-27T07:34:55;0.20;;;0.00;;
54855;SDS011;40748;53.168;5.800;2023-02-27T07:37:25;0.20;;;0.00;;
54855;SDS011;40748;53.168;5.800;2023-02-27T07:39:55;0.20;;;0.00;;
54855;SDS011;40748;53.168;5.800;2023-02-27T07:42:25;0.20;;;0.00;;
54855;SDS011;40748;53.168;5.800;2023-02-27T07:44:55;0.20;;;0.00;;
54855;SDS011;40748;53.168;5.800;2023-02-27T07:47:25;0.20;;;0.00;;
54855;SDS011;40748;53.168;5.800;2023-02-27T07:49:55;0.20;;;0.00;;
54855;SDS011;40748;53.168;5.800;2023-02-27T07:52:25;0.20;;;0.00;;
54855;SDS011;40748;53.168;5.800;2023-02-27T07:54:55;0.20;;;0.00;;
54855;SDS011;40748;53.168;5.800;2023-02-27T07:57:25;0.20;;;0.00;;
54855;SDS011;40748;53.168;5.800;2023-02-27T07:59:55;0.20;;;0.00;;
54855;SDS011;40748;53.168;5.800;2023-02-27T08:02:25;0.20;;;0.00;;
54855;SDS011;40748;53.168;5.800;2023-02-27T08:04:55;0.20;;;0.00;;
54855;SDS011;40748;53.168;5.800;2023-02-27T08:07:25;0.20;;;0.00;;
54855;SDS011;40748;53.168;5.800;2023-02-27T08:09:55;0.20;;;0.00;;
54855;SDS011;40748;53.168;5.800;2023-02-27T08:12:25;0.20;;;0.00;;
54855;SDS011;40748;53.168;5.800;2023-02-27T08:14:55;0.20;;;0.00;;
54855;SDS011;40748;53.168;5.800;2023-02-27T08:17:25;0.20;;;0.00;;
54855;SDS011;40748;53.168;5.800;2023-02-27T08:19:55;0.20;;;0.00;;
54855;SDS011;40748;53.168;5.800;2023-02-27T08:22:25;0.20;;;0.00;;
54855;SDS011;40748;53.168;5.800;2023-02-27T08:24:55;0.20;;;0.00;;
54855;SDS011;40748;53.168;5.800;2023-02-27T08:27:25;0.20;;;0.00;;
54855;SDS011;40748;53.168;5.800;2023-02-27T08:29:55;0.20;;;0.00;;
54855;SDS011;40748;53.168;5.800;2023-02-27T08:32:25;0.20;;;0.00;;
54855;SDS011;40748;53.168;5.800;2023-02-27T08:34:57;0.20;;;0.00;;
54855;SDS011;40748;53.168;5.800;2023-02-27T08:37:25;0.20;;;0.00;;
54855;SDS011;40748;53.168;5.800;2023-02-27T08:39:55;0.20;;;0.00;;
54855;SDS011;40748;53.168;5.800;2023-02-27T08:42:25;0.20;;;0.00;;
54855;SDS011;40748;53.168;5.800;2023-02-27T08:44:55;0.20;;;0.00;;
54855;SDS011;40748;53.168;5.800;2023-02-27T08:47:25;0.20;;;0.00;;
54855;SDS011;40748;53.168;5.800;2023-02-27T08:49:55;0.20;;;0.00;;
54855;SDS011;40748;53.168;5.800;2023-02-27T08:52:25;0.20;;;0.00;;
54855;SDS011;40748;53.168;5.800;2023-02-27T08:54:55;0.20;;;0.00;;
54855;SDS011;40748;53.168;5.800;2023-02-27T08:57:25;0.20;;;0.00;;
54855;SDS011;40748;53.168;5.800;2023-02-27T08:59:55;0.20;;;0.00;;
54855;SDS011;40748;53.168;5.800;2023-02-27T09:02:25;0.20;;;0.00;;
54855;SDS011;40748;53.168;5.800;2023-02-27T09:04:55;1.00;;;0.80;;
54855;SDS011;40748;53.168;5.800;2023-02-27T09:07:25;1.00;;;0.80;;
54855;SDS011;40748;53.168;5.800;2023-02-27T09:09:55;1.00;;;0.80;;
54855;SDS011;40748;53.168;5.800;2023-02-27T09:12:25;1.00;;;0.80;;
54855;SDS011;40748;53.168;5.800;2023-02-27T09:14:55;0.50;;;0.30;;
54855;SDS011;40748;53.168;5.800;2023-02-27T09:17:25;0.50;;;0.30;;
54855;SDS011;40748;53.168;5.800;2023-02-27T09:19:55;0.50;;;0.30;;
54855;SDS011;40748;53.168;5.800;2023-02-27T09:22:25;0.50;;;0.30;;
54855;SDS011;40748;53.168;5.800;2023-02-27T09:24:55;2.20;;;0.50;;
54855;SDS011;40748;53.168;5.800;2023-02-27T09:27:25;2.20;;;0.50;;
54855;SDS011;40748;53.168;5.800;2023-02-27T09:29:55;2.20;;;0.50;;
54855;SDS011;40748;53.168;5.800;2023-02-27T09:32:26;2.20;;;0.50;;
54855;SDS011;40748;53.168;5.800;2023-02-27T09:34:55;0.10;;;0.00;;
54855;SDS011;40748;53.168;5.800;2023-02-27T09:37:25;0.10;;;0.00;;
54855;SDS011;40748;53.168;5.800;2023-02-27T09:39:55;0.10;;;0.00;;
54855;SDS011;40748;53.168;5.800;2023-02-27T09:42:32;0.10;;;0.00;;
54855;SDS011;40748;53.168;5.800;2023-02-27T09:44:57;1.20;;;0.50;;
54855;SDS011;40748;53.168;5.800;2023-02-27T09:47:29;1.20;;;0.50;;
54855;SDS011;40748;53.168;5.800;2023-02-27T09:49:59;1.20;;;0.50;;
54855;SDS011;40748;53.168;5.800;2023-02-27T09:52:27;1.20;;;0.50;;
54855;SDS011;40748;53.168;5.800;2023-02-27T09:54:55;0.10;;;0.00;;
54855;SDS011;40748;53.168;5.800;2023-02-27T09:57:36;0.10;;;0.00;;
54855;SDS011;40748;53.168;5.800;2023-02-27T09:59:58;0.10;;;0.00;;
54855;SDS011;40748;53.168;5.800;2023-02-27T10:02:36;0.10;;;0.00;;
54855;SDS011;40748;53.168;5.800;2023-02-27T10:05:02;0.10;;;0.00;;
54855;SDS011;40748;53.168;5.800;2023-02-27T10:07:31;0.10;;;0.00;;
54855;SDS011;40748;53.168;5.800;2023-02-27T10:10:02;0.10;;;0.00;;
54855;SDS011;40748;53.168;5.800;2023-02-27T10:12:43;0.10;;;0.00;;
54855;SDS011;40748;53.168;5.800;2023-02-27T10:14:57;0.10;;;0.00;;
54855;SDS011;40748;53.168;5.800;2023-02-27T10:17:28;0.10;;;0.00;;
54855;SDS011;40748;53.168;5.800;2023-02-27T10:19:57;0.10;;;0.00;;
54855;SDS011;40748;53.168;5.800;2023-02-27T10:22:29;0.10;;;0.00;;
54855;SDS011;40748;53.168;5.800;2023-02-27T10:25:00;0.10;;;0.00;;
54855;SDS011;40748;53.168;5.800;2023-02-27T10:27:25;0.10;;;0.00;;
54855;SDS011;40748;53.168;5.800;2023-02-27T10:30:00;0.10;;;0.00;;
54855;SDS011;40748;53.168;5.800;2023-02-27T10:32:27;0.10;;;0.00;;
54855;SDS011;40748;53.168;5.800;2023-02-27T10:35:06;0.30;;;0.00;;
54855;SDS011;40748;53.168;5.800;2023-02-27T10:37:26;0.30;;;0.00;;
54855;SDS011;40748;53.168;5.800;2023-02-27T10:39:58;0.30;;;0.00;;
54855;SDS011;40748;53.168;5.800;2023-02-27T10:42:30;0.20;;;0.00;;
54855;SDS011;40748;53.168;5.800;2023-02-27T10:44:55;0.20;;;0.00;;
54855;SDS011;40748;53.168;5.800;2023-02-27T10:47:25;0.20;;;0.00;;
54855;SDS011;40748;53.168;5.800;2023-02-27T10:49:55;0.20;;;0.00;;
54855;SDS011;40748;53.168;5.800;2023-02-27T10:52:25;0.20;;;0.10;;
54855;SDS011;40748;53.168;5.800;2023-02-27T10:55:15;0.20;;;0.10;;
54855;SDS011;40748;53.168;5.800;2023-02-27T10:57:28;0.20;;;0.10;;
54855;SDS011;40748;53.168;5.800;2023-02-27T10:59:58;0.20;;;0.10;;
54855;SDS011;40748;53.168;5.800;2023-02-27T11:02:31;0.10;;;0.00;;
54855;SDS011;40748;53.168;5.800;2023-02-27T11:04:58;0.10;;;0.00;;
54855;SDS011;40748;53.168;5.800;2023-02-27T11:07:28;0.10;;;0.00;;
54855;SDS011;40748;53.168;5.800;2023-02-27T11:10:02;0.10;;;0.00;;
54855;SDS011;40748;53.168;5.800;2023-02-27T11:12:27;9.30;;;0.30;;
54855;SDS011;40748;53.168;5.800;2023-02-27T11:14:57;9.30;;;0.30;;
54855;SDS011;40748;53.168;5.800;2023-02-27T11:17:27;9.30;;;0.30;;
54855;SDS011;40748;53.168;5.800;2023-02-27T11:19:57;9.30;;;0.30;;
54855;SDS011;40748;53.168;5.800;2023-02-27T11:22:28;0.30;;;0.10;;
54855;SDS011;40748;53.168;5.800;2023-02-27T11:25:09;0.30;;;0.10;;
54855;SDS011;40748;53.168;5.800;2023-02-27T11:27:28;0.30;;;0.10;;
54855;SDS011;40748;53.168;5.800;2023-02-27T11:29:58;0.30;;;0.10;;
54855;SDS011;40748;53.168;5.800;2023-02-27T11:32:32;0.10;;;0.00;;
54855;SDS011;40748;53.168;5.800;2023-02-27T11:34:55;0.10;;;0.00;;
54855;SDS011;40748;53.168;5.800;2023-02-27T11:37:28;0.10;;;0.00;;
54855;SDS011;40748;53.168;5.800;2023-02-27T11:40:03;0.10;;;0.00;;
54855;SDS011;40748;53.168;5.800;2023-02-27T11:42:30;0.10;;;0.00;;
54855;SDS011;40748;53.168;5.800;2023-02-27T11:44:58;0.10;;;0.00;;
54855;SDS011;40748;53.168;5.800;2023-02-27T11:47:29;0.10;;;0.00;;
54855;SDS011;40748;53.168;5.800;2023-02-27T11:52:31;0.10;;;0.00;;
54855;SDS011;40748;53.168;5.800;2023-02-27T11:54:57;0.10;;;0.00;;
54855;SDS011;40748;53.168;5.800;2023-02-27T11:57:29;0.10;;;0.00;;
54855;SDS011;40748;53.168;5.800;2023-02-27T11:59:59;0.10;;;0.00;;
54855;SDS011;40748;53.168;5.800;2023-02-27T12:02:29;0.10;;;0.00;;
54855;SDS011;40748;53.168;5.800;2023-02-27T12:04:58;0.10;;;0.00;;
54855;SDS011;40748;53.168;5.800;2023-02-27T12:07:30;0.10;;;0.00;;
54855;SDS011;40748;53.168;5.800;2023-02-27T12:10:00;0.10;;;0.00;;
54855;SDS011;40748;53.168;5.800;2023-02-27T12:12:29;0.10;;;0.00;;
54855;SDS011;40748;53.168;5.800;2023-02-27T12:15:01;0.10;;;0.00;;
54855;SDS011;40748;53.168;5.800;2023-02-27T12:17:30;0.10;;;0.00;;
54855;SDS011;40748;53.168;5.800;2023-02-27T12:20:06;0.10;;;0.00;;
54855;SDS011;40748;53.168;5.800;2023-02-27T12:22:29;0.10;;;0.00;;
54855;SDS011;40748;53.168;5.800;2023-02-27T12:25:01;0.10;;;0.00;;
54855;SDS011;40748;53.168;5.800;2023-02-27T12:27:34;0.10;;;0.00;;
54855;SDS011;40748;53.168;5.800;2023-02-27T12:30:01;0.10;;;0.00;;
54855;SDS011;40748;53.168;5.800;2023-02-27T12:32:31;0.10;;;0.00;;
54855;SDS011;40748;53.168;5.800;2023-02-27T12:34:58;0.10;;;0.00;;
54855;SDS011;40748;53.168;5.800;2023-02-27T12:37:27;0.10;;;0.00;;
54855;SDS011;40748;53.168;5.800;2023-02-27T12:39:58;0.10;;;0.00;;
54855;SDS011;40748;53.168;5.800;2023-02-27T12:42:40;0.10;;;0.00;;
54855;SDS011;40748;53.168;5.800;2023-02-27T12:47:33;0.10;;;0.00;;
54855;SDS011;40748;53.168;5.800;2023-02-27T12:50:00;0.10;;;0.00;;
54855;SDS011;40748;53.168;5.800;2023-02-27T12:52:36;0.10;;;0.00;;
54855;SDS011;40748;53.168;5.800;2023-02-27T12:55:05;0.10;;;0.00;;
54855;SDS011;40748;53.168;5.800;2023-02-27T12:57:35;0.10;;;0.00;;
54855;SDS011;40748;53.168;5.800;2023-02-27T13:00:03;0.10;;;0.00;;
54855;SDS011;40748;53.168;5.800;2023-02-27T13:02:37;0.10;;;0.00;;
54855;SDS011;40748;53.168;5.800;2023-02-27T13:05:01;0.10;;;0.00;;
54855;SDS011;40748;53.168;5.800;2023-02-27T13:07:30;0.10;;;0.00;;
54855;SDS011;40748;53.168;5.800;2023-02-27T13:09:57;0.10;;;0.00;;
54855;SDS011;40748;53.168;5.800;2023-02-27T13:12:32;0.10;;;0.00;;
54855;SDS011;40748;53.168;5.800;2023-02-27T13:14:59;0.10;;;0.00;;
54855;SDS011;40748;53.168;5.800;2023-02-27T13:17:30;0.10;;;0.00;;
54855;SDS011;40748;53.168;5.800;2023-02-27T13:20:00;0.10;;;0.00;;
54855;SDS011;40748;53.168;5.800;2023-02-27T13:22:31;0.30;;;0.10;;
54855;SDS011;40748;53.168;5.800;2023-02-27T13:24:58;0.30;;;0.10;;
54855;SDS011;40748;53.168;5.800;2023-02-27T13:27:29;0.30;;;0.10;;
54855;SDS011;40748;53.168;5.800;2023-02-27T13:30:06;0.30;;;0.10;;
54855;SDS011;40748;53.168;5.800;2023-02-27T13:32:32;0.30;;;0.10;;
54855;SDS011;40748;53.168;5.800;2023-02-27T13:35:00;0.30;;;0.10;;
54855;SDS011;40748;53.168;5.800;2023-02-27T13:39:55;0.30;;;0.10;;
54855;SDS011;40748;53.168;5.800;2023-02-27T13:44:56;0.30;;;0.10;;
54855;SDS011;40748;53.168;5.800;2023-02-27T13:47:36;0.30;;;0.10;;
54855;SDS011;40748;53.168;5.800;2023-02-27T13:49:56;0.30;;;0.10;;
54855;SDS011;40748;53.168;5.800;2023-02-27T13:52:27;0.30;;;0.10;;
54855;SDS011;40748;53.168;5.800;2023-02-27T13:54:56;0.30;;;0.10;;
54855;SDS011;40748;53.168;5.800;2023-02-27T13:57:26;0.30;;;0.10;;
54855;SDS011;40748;53.168;5.800;2023-02-27T13:59:58;0.30;;;0.10;;
54855;SDS011;40748;53.168;5.800;2023-02-27T14:02:32;0.30;;;0.10;;
54855;SDS011;40748;53.168;5.800;2023-02-27T14:04:57;0.30;;;0.10;;
54855;SDS011;40748;53.168;5.800;2023-02-27T14:07:28;0.30;;;0.10;;
54855;SDS011;40748;53.168;5.800;2023-02-27T14:10:00;0.30;;;0.10;;
54855;SDS011;40748;53.168;5.800;2023-02-27T14:12:27;0.30;;;0.10;;
54855;SDS011;40748;53.168;5.800;2023-02-27T14:14:55;0.30;;;0.10;;
54855;SDS011;40748;53.168;5.800;2023-02-27T14:17:39;0.30;;;0.10;;
54855;SDS011;40748;53.168;5.800;2023-02-27T14:19:55;0.30;;;0.10;;
54855;SDS011;40748;53.168;5.800;2023-02-27T14:22:32;0.30;;;0.10;;
54855;SDS011;40748;53.168;5.800;2023-02-27T14:24:59;0.30;;;0.10;;
54855;SDS011;40748;53.168;5.800;2023-02-27T14:27:29;0.30;;;0.10;;
54855;SDS011;40748;53.168;5.800;2023-02-27T14:29:59;0.30;;;0.10;;
54855;SDS011;40748;53.168;5.800;2023-02-27T14:32:30;0.30;;;0.10;;
54855;SDS011;40748;53.168;5.800;2023-02-27T14:34:55;0.30;;;0.10;;
54855;SDS011;40748;53.168;5.800;2023-02-27T14:37:26;0.30;;;0.10;;
54855;SDS011;40748;53.168;5.800;2023-02-27T14:39:57;0.30;;;0.10;;
54855;SDS011;40748;53.168;5.800;2023-02-27T14:42:36;0.30;;;0.10;;
54855;SDS011;40748;53.168;5.800;2023-02-27T14:44:56;0.30;;;0.10;;
54855;SDS011;40748;53.168;5.800;2023-02-27T14:47:30;0.30;;;0.10;;
54855;SDS011;40748;53.168;5.800;2023-02-27T14:49:56;0.30;;;0.10;;
54855;SDS011;40748;53.168;5.800;2023-02-27T14:52:27;0.30;;;0.10;;
54855;SDS011;40748;53.168;5.800;2023-02-27T14:55:07;0.30;;;0.10;;
54855;SDS011;40748;53.168;5.800;2023-02-27T14:57:25;0.30;;;0.10;;
54855;SDS011;40748;53.168;5.800;2023-02-27T14:59:55;0.30;;;0.10;;
54855;SDS011;40748;53.168;5.800;2023-02-27T15:02:28;0.30;;;0.10;;
54855;SDS011;40748;53.168;5.800;2023-02-27T15:05:14;0.30;;;0.10;;
54855;SDS011;40748;53.168;5.800;2023-02-27T15:07:28;0.30;;;0.10;;
54855;SDS011;40748;53.168;5.800;2023-02-27T15:09:59;0.30;;;0.10;;
54855;SDS011;40748;53.168;5.800;2023-02-27T15:12:26;0.30;;;0.10;;
54855;SDS011;40748;53.168;5.800;2023-02-27T15:14:57;0.30;;;0.10;;
54855;SDS011;40748;53.168;5.800;2023-02-27T15:17:27;0.30;;;0.10;;
54855;SDS011;40748;53.168;5.800;2023-02-27T15:19:57;0.30;;;0.10;;
54855;SDS011;40748;53.168;5.800;2023-02-27T15:22:28;0.30;;;0.10;;
54855;SDS011;40748;53.168;5.800;2023-02-27T15:24:56;0.30;;;0.10;;
54855;SDS011;40748;53.168;5.800;2023-02-27T15:27:26;0.30;;;0.10;;
54855;SDS011;40748;53.168;5.800;2023-02-27T15:29:57;0.30;;;0.10;;
54855;SDS011;40748;53.168;5.800;2023-02-27T15:32:27;0.30;;;0.10;;
54855;SDS011;40748;53.168;5.800;2023-02-27T15:34:57;0.30;;;0.10;;
54855;SDS011;40748;53.168;5.800;2023-02-27T15:37:29;0.30;;;0.10;;
54855;SDS011;40748;53.168;5.800;2023-02-27T15:39:57;0.30;;;0.10;;
54855;SDS011;40748;53.168;5.800;2023-02-27T15:42:28;0.30;;;0.10;;
54855;SDS011;40748;53.168;5.800;2023-02-27T15:44:57;0.30;;;0.10;;
54855;SDS011;40748;53.168;5.800;2023-02-27T15:47:28;0.30;;;0.10;;
54855;SDS011;40748;53.168;5.800;2023-02-27T15:50:02;0.30;;;0.10;;
54855;SDS011;40748;53.168;5.800;2023-02-27T15:52:31;0.30;;;0.10;;
54855;SDS011;40748;53.168;5.800;2023-02-27T15:55:00;0.30;;;0.10;;
54855;SDS011;40748;53.168;5.800;2023-02-27T15:57:25;0.30;;;0.10;;
54855;SDS011;40748;53.168;5.800;2023-02-27T15:59:56;0.30;;;0.10;;
54855;SDS011;40748;53.168;5.800;2023-02-27T16:02:28;0.30;;;0.10;;
54855;SDS011;40748;53.168;5.800;2023-02-27T16:04:56;0.30;;;0.10;;
54855;SDS011;40748;53.168;5.800;2023-02-27T16:07:26;0.30;;;0.10;;
54855;SDS011;40748;53.168;5.800;2023-02-27T16:09:59;0.30;;;0.10;;
54855;SDS011;40748;53.168;5.800;2023-02-27T16:12:28;0.30;;;0.10;;
54855;SDS011;40748;53.168;5.800;2023-02-27T16:15:16;0.30;;;0.10;;
54855;SDS011;40748;53.168;5.800;2023-02-27T16:17:27;0.30;;;0.10;;
54855;SDS011;40748;53.168;5.800;2023-02-27T16:19:57;0.30;;;0.10;;
54855;SDS011;40748;53.168;5.800;2023-02-27T16:22:26;0.30;;;0.10;;
54855;SDS011;40748;53.168;5.800;2023-02-27T16:25:06;0.30;;;0.10;;
54855;SDS011;40748;53.168;5.800;2023-02-27T16:27:27;0.30;;;0.10;;
54855;SDS011;40748;53.168;5.800;2023-02-27T16:29:56;0.30;;;0.10;;